sensor_id;sensor_type;location;lat;lon;timestamp;P1;durP1;ratioP1;P2;durP2;ratioP2
12681;SDS011;6405;59.208;18.216;2023-01-10T00:00:47;11.07;;;6.37;;
12681;SDS011;6405;59.208;18.216;2023-01-10T00:03:16;12.63;;;7.07;;
12681;SDS011;6405;59.208;18.216;2023-01-10T00:05:44;15.07;;;7.20;;
12681;SDS011;6405;59.208;18.216;2023-01-10T00:08:13;12.27;;;6.93;;
12681;SDS011;6405;59.208;18.216;2023-01-10T00:10:43;10.80;;;6.43;;
12681;SDS011;6405;59.208;18.216;2023-01-10T00:13:14;12.37;;;6.80;;
12681;SDS011;6405;59.208;18.216;2023-01-10T00:15:53;12.67;;;6.30;;
12681;SDS011;6405;59.208;18.216;2023-01-10T00:18:21;11.77;;;6.47;;
12681;SDS011;6405;59.208;18.216;2023-01-10T00:20:47;12.37;;;6.10;;
12681;SDS011;6405;59.208;18.216;2023-01-10T00:23:13;11.90;;;6.57;;
12681;SDS011;6405;59.208;18.216;2023-01-10T00:25:40;15.17;;;6.50;;
12681;SDS011;6405;59.208;18.216;2023-01-10T00:28:07;10.83;;;6.23;;
12681;SDS011;6405;59.208;18.216;2023-01-10T00:30:37;12.20;;;6.57;;
12681;SDS011;6405;59.208;18.216;2023-01-10T00:33:05;13.43;;;6.23;;
12681;SDS011;6405;59.208;18.216;2023-01-10T00:35:33;8.80;;;6.20;;
12681;SDS011;6405;59.208;18.216;2023-01-10T00:37:59;10.33;;;6.23;;
12681;SDS011;6405;59.208;18.216;2023-01-10T00:40:30;11.77;;;6.10;;
12681;SDS011;6405;59.208;18.216;2023-01-10T00:42:58;11.13;;;6.43;;
12681;SDS011;6405;59.208;18.216;2023-01-10T00:45:46;11.53;;;6.10;;
12681;SDS011;6405;59.208;18.216;2023-01-10T00:48:13;12.33;;;6.40;;
12681;SDS011;6405;59.208;18.216;2023-01-10T00:50:39;13.50;;;7.10;;
12681;SDS011;6405;59.208;18.216;2023-01-10T00:53:08;11.57;;;7.27;;
12681;SDS011;6405;59.208;18.216;2023-01-10T00:55:35;11.10;;;6.60;;
12681;SDS011;6405;59.208;18.216;2023-01-10T00:58:02;11.73;;;6.97;;
12681;SDS011;6405;59.208;18.216;2023-01-10T01:00:30;18.07;;;7.17;;
12681;SDS011;6405;59.208;18.216;2023-01-10T01:02:56;11.07;;;6.47;;
12681;SDS011;6405;59.208;18.216;2023-01-10T01:05:23;10.60;;;6.27;;
12681;SDS011;6405;59.208;18.216;2023-01-10T01:07:49;11.23;;;6.33;;
12681;SDS011;6405;59.208;18.216;2023-01-10T01:10:16;11.07;;;6.93;;
12681;SDS011;6405;59.208;18.216;2023-01-10T01:12:53;11.03;;;6.17;;
12681;SDS011;6405;59.208;18.216;2023-01-10T01:15:40;10.70;;;6.53;;
12681;SDS011;6405;59.208;18.216;2023-01-10T01:18:06;8.33;;;4.97;;
12681;SDS011;6405;59.208;18.216;2023-01-10T01:20:34;10.43;;;5.43;;
12681;SDS011;6405;59.208;18.216;2023-01-10T01:23:03;9.17;;;5.80;;
12681;SDS011;6405;59.208;18.216;2023-01-10T01:25:30;9.47;;;6.13;;
12681;SDS011;6405;59.208;18.216;2023-01-10T01:27:56;13.83;;;6.30;;
12681;SDS011;6405;59.208;18.216;2023-01-10T01:30:22;9.57;;;5.37;;
12681;SDS011;6405;59.208;18.216;2023-01-10T01:32:49;8.87;;;5.57;;
12681;SDS011;6405;59.208;18.216;2023-01-10T01:35:16;10.03;;;5.27;;
12681;SDS011;6405;59.208;18.216;2023-01-10T01:37:44;11.10;;;5.80;;
12681;SDS011;6405;59.208;18.216;2023-01-10T01:40:13;7.97;;;5.10;;
12681;SDS011;6405;59.208;18.216;2023-01-10T01:42:41;12.50;;;5.53;;
12681;SDS011;6405;59.208;18.216;2023-01-10T01:50:19;7.07;;;4.80;;
12681;SDS011;6405;59.208;18.216;2023-01-10T01:52:53;14.40;;;5.90;;
12681;SDS011;6405;59.208;18.216;2023-01-10T01:55:23;7.80;;;4.77;;
12681;SDS011;6405;59.208;18.216;2023-01-10T01:57:53;8.33;;;4.90;;
12681;SDS011;6405;59.208;18.216;2023-01-10T02:00:21;6.30;;;4.10;;
12681;SDS011;6405;59.208;18.216;2023-01-10T02:02:53;6.20;;;3.80;;
12681;SDS011;6405;59.208;18.216;2023-01-10T02:05:23;5.33;;;4.23;;
12681;SDS011;6405;59.208;18.216;2023-01-10T02:07:54;4.93;;;3.63;;
12681;SDS011;6405;59.208;18.216;2023-01-10T02:10:26;9.73;;;4.43;;
12681;SDS011;6405;59.208;18.216;2023-01-10T02:13:14;6.53;;;3.37;;
12681;SDS011;6405;59.208;18.216;2023-01-10T02:15:43;7.97;;;3.70;;
12681;SDS011;6405;59.208;18.216;2023-01-10T02:18:10;8.60;;;3.40;;
12681;SDS011;6405;59.208;18.216;2023-01-10T02:23:48;5.53;;;3.07;;
12681;SDS011;6405;59.208;18.216;2023-01-10T02:26:56;4.33;;;3.07;;
12681;SDS011;6405;59.208;18.216;2023-01-10T02:35:42;3.97;;;2.30;;
12681;SDS011;6405;59.208;18.216;2023-01-10T02:43:34;2.60;;;2.10;;
12681;SDS011;6405;59.208;18.216;2023-01-10T02:46:08;2.93;;;1.90;;
12681;SDS011;6405;59.208;18.216;2023-01-10T02:48:39;3.00;;;2.10;;
12681;SDS011;6405;59.208;18.216;2023-01-10T02:53:46;2.77;;;2.00;;
12681;SDS011;6405;59.208;18.216;2023-01-10T02:59:11;3.10;;;2.10;;
12681;SDS011;6405;59.208;18.216;2023-01-10T03:07:17;2.03;;;1.40;;
12681;SDS011;6405;59.208;18.216;2023-01-10T03:09:54;2.83;;;1.37;;
12681;SDS011;6405;59.208;18.216;2023-01-10T03:15:26;2.50;;;1.80;;
12681;SDS011;6405;59.208;18.216;2023-01-10T03:17:56;1.40;;;1.30;;
12681;SDS011;6405;59.208;18.216;2023-01-10T03:20:26;3.07;;;1.37;;
12681;SDS011;6405;59.208;18.216;2023-01-10T03:22:57;2.33;;;1.40;;
12681;SDS011;6405;59.208;18.216;2023-01-10T03:25:29;1.77;;;1.47;;
12681;SDS011;6405;59.208;18.216;2023-01-10T03:28:13;2.80;;;1.40;;
12681;SDS011;6405;59.208;18.216;2023-01-10T03:31:29;1.83;;;1.17;;
12681;SDS011;6405;59.208;18.216;2023-01-10T03:33:30;2.17;;;1.10;;
12681;SDS011;6405;59.208;18.216;2023-01-10T03:44:06;1.87;;;1.40;;
12681;SDS011;6405;59.208;18.216;2023-01-10T03:49:37;1.60;;;1.07;;
12681;SDS011;6405;59.208;18.216;2023-01-10T03:52:06;1.63;;;1.10;;
12681;SDS011;6405;59.208;18.216;2023-01-10T03:54:35;3.33;;;1.40;;
12681;SDS011;6405;59.208;18.216;2023-01-10T03:57:02;1.80;;;1.40;;
12681;SDS011;6405;59.208;18.216;2023-01-10T03:59:31;2.07;;;1.27;;
12681;SDS011;6405;59.208;18.216;2023-01-10T04:01:56;1.67;;;1.27;;
12681;SDS011;6405;59.208;18.216;2023-01-10T04:04:23;5.83;;;1.43;;
12681;SDS011;6405;59.208;18.216;2023-01-10T04:06:49;2.53;;;1.40;;
12681;SDS011;6405;59.208;18.216;2023-01-10T04:09:16;3.40;;;1.70;;
12681;SDS011;6405;59.208;18.216;2023-01-10T04:11:42;3.67;;;1.60;;
12681;SDS011;6405;59.208;18.216;2023-01-10T04:14:09;2.00;;;1.60;;
12681;SDS011;6405;59.208;18.216;2023-01-10T04:16:37;2.43;;;1.33;;
12681;SDS011;6405;59.208;18.216;2023-01-10T04:19:03;3.37;;;1.90;;
12681;SDS011;6405;59.208;18.216;2023-01-10T04:21:32;5.70;;;1.67;;
12681;SDS011;6405;59.208;18.216;2023-01-10T04:23:58;4.17;;;1.77;;
12681;SDS011;6405;59.208;18.216;2023-01-10T04:26:25;3.50;;;2.10;;
12681;SDS011;6405;59.208;18.216;2023-01-10T04:28:52;2.97;;;1.80;;
12681;SDS011;6405;59.208;18.216;2023-01-10T04:31:19;3.67;;;1.30;;
12681;SDS011;6405;59.208;18.216;2023-01-10T04:33:48;2.73;;;1.80;;
12681;SDS011;6405;59.208;18.216;2023-01-10T04:36:15;4.90;;;1.93;;
12681;SDS011;6405;59.208;18.216;2023-01-10T04:38:41;6.23;;;1.80;;
12681;SDS011;6405;59.208;18.216;2023-01-10T04:41:08;4.23;;;1.70;;
12681;SDS011;6405;59.208;18.216;2023-01-10T04:43:35;3.07;;;1.87;;
12681;SDS011;6405;59.208;18.216;2023-01-10T04:46:03;4.93;;;2.10;;
12681;SDS011;6405;59.208;18.216;2023-01-10T04:48:29;6.67;;;2.10;;
12681;SDS011;6405;59.208;18.216;2023-01-10T04:50:57;7.30;;;2.43;;
12681;SDS011;6405;59.208;18.216;2023-01-10T04:53:23;4.77;;;2.63;;
12681;SDS011;6405;59.208;18.216;2023-01-10T04:55:52;4.37;;;2.00;;
12681;SDS011;6405;59.208;18.216;2023-01-10T04:58:19;3.03;;;1.93;;
12681;SDS011;6405;59.208;18.216;2023-01-10T05:00:45;6.57;;;2.23;;
12681;SDS011;6405;59.208;18.216;2023-01-10T05:03:12;6.30;;;2.37;;
12681;SDS011;6405;59.208;18.216;2023-01-10T05:05:40;2.97;;;2.03;;
12681;SDS011;6405;59.208;18.216;2023-01-10T05:08:07;5.23;;;2.07;;
12681;SDS011;6405;59.208;18.216;2023-01-10T05:10:33;2.83;;;1.87;;
12681;SDS011;6405;59.208;18.216;2023-01-10T05:13:00;3.33;;;1.90;;
12681;SDS011;6405;59.208;18.216;2023-01-10T05:15:25;4.50;;;1.77;;
12681;SDS011;6405;59.208;18.216;2023-01-10T05:17:58;4.30;;;2.17;;
12681;SDS011;6405;59.208;18.216;2023-01-10T05:20:24;5.83;;;2.53;;
12681;SDS011;6405;59.208;18.216;2023-01-10T05:22:52;6.13;;;2.43;;
12681;SDS011;6405;59.208;18.216;2023-01-10T05:25:19;8.63;;;2.97;;
12681;SDS011;6405;59.208;18.216;2023-01-10T05:27:46;5.10;;;2.70;;
12681;SDS011;6405;59.208;18.216;2023-01-10T05:30:13;6.37;;;3.00;;
12681;SDS011;6405;59.208;18.216;2023-01-10T05:32:40;5.00;;;3.10;;
12681;SDS011;6405;59.208;18.216;2023-01-10T05:35:07;5.37;;;2.70;;
12681;SDS011;6405;59.208;18.216;2023-01-10T05:37:32;7.07;;;2.77;;
12681;SDS011;6405;59.208;18.216;2023-01-10T05:39:59;6.60;;;2.90;;
12681;SDS011;6405;59.208;18.216;2023-01-10T05:42:24;9.17;;;3.27;;
12681;SDS011;6405;59.208;18.216;2023-01-10T05:44:51;7.30;;;2.97;;
12681;SDS011;6405;59.208;18.216;2023-01-10T05:47:17;5.63;;;2.90;;
12681;SDS011;6405;59.208;18.216;2023-01-10T05:49:44;5.40;;;2.80;;
12681;SDS011;6405;59.208;18.216;2023-01-10T05:52:11;6.23;;;3.23;;
12681;SDS011;6405;59.208;18.216;2023-01-10T05:54:39;4.70;;;2.90;;
12681;SDS011;6405;59.208;18.216;2023-01-10T05:57:06;8.20;;;3.07;;
12681;SDS011;6405;59.208;18.216;2023-01-10T05:59:32;9.67;;;3.73;;
12681;SDS011;6405;59.208;18.216;2023-01-10T06:01:59;6.43;;;3.10;;
12681;SDS011;6405;59.208;18.216;2023-01-10T06:04:26;5.73;;;3.23;;
12681;SDS011;6405;59.208;18.216;2023-01-10T06:06:52;10.27;;;3.80;;
12681;SDS011;6405;59.208;18.216;2023-01-10T06:09:19;5.77;;;3.23;;
12681;SDS011;6405;59.208;18.216;2023-01-10T06:11:47;6.77;;;3.30;;
12681;SDS011;6405;59.208;18.216;2023-01-10T06:14:13;5.77;;;2.83;;
12681;SDS011;6405;59.208;18.216;2023-01-10T06:16:45;6.10;;;3.13;;
12681;SDS011;6405;59.208;18.216;2023-01-10T06:19:11;9.73;;;3.03;;
12681;SDS011;6405;59.208;18.216;2023-01-10T06:21:37;10.13;;;3.13;;
12681;SDS011;6405;59.208;18.216;2023-01-10T06:24:03;7.57;;;3.50;;
12681;SDS011;6405;59.208;18.216;2023-01-10T06:26:30;5.83;;;3.10;;
12681;SDS011;6405;59.208;18.216;2023-01-10T06:28:57;11.63;;;3.23;;
12681;SDS011;6405;59.208;18.216;2023-01-10T06:31:24;10.50;;;3.50;;
12681;SDS011;6405;59.208;18.216;2023-01-10T06:33:53;7.53;;;3.10;;
12681;SDS011;6405;59.208;18.216;2023-01-10T06:36:20;16.63;;;4.50;;
12681;SDS011;6405;59.208;18.216;2023-01-10T06:38:47;14.27;;;3.70;;
12681;SDS011;6405;59.208;18.216;2023-01-10T06:41:13;14.70;;;4.33;;
12681;SDS011;6405;59.208;18.216;2023-01-10T06:43:41;80.10;;;9.67;;
12681;SDS011;6405;59.208;18.216;2023-01-10T06:46:11;115.63;;;12.87;;
12681;SDS011;6405;59.208;18.216;2023-01-10T06:48:43;52.60;;;7.97;;
12681;SDS011;6405;59.208;18.216;2023-01-10T06:51:13;43.73;;;8.57;;
12681;SDS011;6405;59.208;18.216;2023-01-10T06:53:42;94.10;;;13.23;;
12681;SDS011;6405;59.208;18.216;2023-01-10T06:56:10;89.37;;;12.67;;
12681;SDS011;6405;59.208;18.216;2023-01-10T06:58:36;77.50;;;14.33;;
12681;SDS011;6405;59.208;18.216;2023-01-10T07:01:05;50.53;;;10.83;;
12681;SDS011;6405;59.208;18.216;2023-01-10T07:03:34;52.40;;;12.67;;
12681;SDS011;6405;59.208;18.216;2023-01-10T07:06:02;20.37;;;8.97;;
12681;SDS011;6405;59.208;18.216;2023-01-10T07:08:36;32.50;;;10.50;;
12681;SDS011;6405;59.208;18.216;2023-01-10T07:11:08;21.03;;;10.10;;
12681;SDS011;6405;59.208;18.216;2023-01-10T07:13:35;25.67;;;10.80;;
12681;SDS011;6405;59.208;18.216;2023-01-10T07:16:06;26.13;;;11.83;;
12681;SDS011;6405;59.208;18.216;2023-01-10T07:18:35;33.27;;;12.93;;
12681;SDS011;6405;59.208;18.216;2023-01-10T07:21:05;25.97;;;11.17;;
12681;SDS011;6405;59.208;18.216;2023-01-10T07:23:32;26.13;;;10.00;;
12681;SDS011;6405;59.208;18.216;2023-01-10T07:26:03;17.90;;;9.53;;
12681;SDS011;6405;59.208;18.216;2023-01-10T07:28:32;20.07;;;10.03;;
12681;SDS011;6405;59.208;18.216;2023-01-10T07:31:03;21.20;;;9.97;;
12681;SDS011;6405;59.208;18.216;2023-01-10T07:33:31;20.50;;;10.27;;
12681;SDS011;6405;59.208;18.216;2023-01-10T07:35:59;16.17;;;9.33;;
12681;SDS011;6405;59.208;18.216;2023-01-10T07:38:27;16.67;;;9.60;;
12681;SDS011;6405;59.208;18.216;2023-01-10T07:40:54;15.17;;;8.20;;
12681;SDS011;6405;59.208;18.216;2023-01-10T07:43:22;11.70;;;6.60;;
12681;SDS011;6405;59.208;18.216;2023-01-10T07:45:51;12.07;;;7.13;;
12681;SDS011;6405;59.208;18.216;2023-01-10T07:48:17;11.97;;;6.83;;
12681;SDS011;6405;59.208;18.216;2023-01-10T07:50:42;8.77;;;4.07;;
12681;SDS011;6405;59.208;18.216;2023-01-10T07:53:09;8.63;;;5.70;;
12681;SDS011;6405;59.208;18.216;2023-01-10T07:55:36;10.20;;;6.57;;
12681;SDS011;6405;59.208;18.216;2023-01-10T07:58:05;8.83;;;6.33;;
12681;SDS011;6405;59.208;18.216;2023-01-10T08:00:36;5.40;;;3.17;;
12681;SDS011;6405;59.208;18.216;2023-01-10T08:03:03;11.30;;;7.23;;
12681;SDS011;6405;59.208;18.216;2023-01-10T08:05:31;9.27;;;6.03;;
12681;SDS011;6405;59.208;18.216;2023-01-10T08:08:05;9.43;;;5.67;;
12681;SDS011;6405;59.208;18.216;2023-01-10T08:10:33;11.27;;;5.70;;
12681;SDS011;6405;59.208;18.216;2023-01-10T08:13:00;8.73;;;5.63;;
12681;SDS011;6405;59.208;18.216;2023-01-10T08:15:27;8.50;;;4.90;;
12681;SDS011;6405;59.208;18.216;2023-01-10T08:17:58;7.40;;;4.63;;
12681;SDS011;6405;59.208;18.216;2023-01-10T08:20:28;7.87;;;5.20;;
12681;SDS011;6405;59.208;18.216;2023-01-10T08:22:58;8.07;;;5.07;;
12681;SDS011;6405;59.208;18.216;2023-01-10T08:25:25;7.63;;;5.27;;
12681;SDS011;6405;59.208;18.216;2023-01-10T08:27:51;10.40;;;6.23;;
12681;SDS011;6405;59.208;18.216;2023-01-10T08:30:18;8.57;;;5.73;;
12681;SDS011;6405;59.208;18.216;2023-01-10T08:32:44;9.27;;;5.13;;
12681;SDS011;6405;59.208;18.216;2023-01-10T08:35:12;7.27;;;4.90;;
12681;SDS011;6405;59.208;18.216;2023-01-10T08:37:38;6.80;;;4.90;;
12681;SDS011;6405;59.208;18.216;2023-01-10T08:40:04;7.20;;;4.70;;
12681;SDS011;6405;59.208;18.216;2023-01-10T08:42:30;7.50;;;4.87;;
12681;SDS011;6405;59.208;18.216;2023-01-10T08:44:56;5.67;;;4.13;;
12681;SDS011;6405;59.208;18.216;2023-01-10T08:47:25;5.80;;;3.67;;
12681;SDS011;6405;59.208;18.216;2023-01-10T08:49:52;7.57;;;3.93;;
12681;SDS011;6405;59.208;18.216;2023-01-10T08:52:19;7.13;;;4.33;;
12681;SDS011;6405;59.208;18.216;2023-01-10T08:54:45;6.37;;;4.70;;
12681;SDS011;6405;59.208;18.216;2023-01-10T08:57:12;6.47;;;4.13;;
12681;SDS011;6405;59.208;18.216;2023-01-10T08:59:39;7.00;;;4.30;;
12681;SDS011;6405;59.208;18.216;2023-01-10T09:02:05;8.00;;;4.63;;
12681;SDS011;6405;59.208;18.216;2023-01-10T09:04:33;7.00;;;4.23;;
12681;SDS011;6405;59.208;18.216;2023-01-10T09:07:00;5.90;;;4.17;;
12681;SDS011;6405;59.208;18.216;2023-01-10T09:09:27;5.90;;;3.90;;
12681;SDS011;6405;59.208;18.216;2023-01-10T09:11:52;7.13;;;4.10;;
12681;SDS011;6405;59.208;18.216;2023-01-10T09:14:21;6.70;;;4.13;;
12681;SDS011;6405;59.208;18.216;2023-01-10T09:16:48;6.90;;;4.13;;
12681;SDS011;6405;59.208;18.216;2023-01-10T09:19:16;6.50;;;4.43;;
12681;SDS011;6405;59.208;18.216;2023-01-10T09:21:43;7.57;;;5.07;;
12681;SDS011;6405;59.208;18.216;2023-01-10T09:24:10;7.90;;;5.60;;
12681;SDS011;6405;59.208;18.216;2023-01-10T09:26:37;9.23;;;5.57;;
12681;SDS011;6405;59.208;18.216;2023-01-10T09:29:03;8.57;;;6.27;;
12681;SDS011;6405;59.208;18.216;2023-01-10T09:31:29;9.07;;;5.73;;
12681;SDS011;6405;59.208;18.216;2023-01-10T09:33:55;9.37;;;4.87;;
12681;SDS011;6405;59.208;18.216;2023-01-10T09:36:22;8.67;;;4.80;;
12681;SDS011;6405;59.208;18.216;2023-01-10T09:38:48;9.67;;;5.30;;
12681;SDS011;6405;59.208;18.216;2023-01-10T09:41:16;8.70;;;5.47;;
12681;SDS011;6405;59.208;18.216;2023-01-10T09:43:57;8.13;;;5.93;;
12681;SDS011;6405;59.208;18.216;2023-01-10T09:49:43;9.83;;;5.63;;
12681;SDS011;6405;59.208;18.216;2023-01-10T09:52:27;7.93;;;5.63;;
12681;SDS011;6405;59.208;18.216;2023-01-10T09:54:59;10.10;;;6.57;;
12681;SDS011;6405;59.208;18.216;2023-01-10T09:57:40;9.10;;;5.37;;
12681;SDS011;6405;59.208;18.216;2023-01-10T10:00:07;10.40;;;5.27;;
12681;SDS011;6405;59.208;18.216;2023-01-10T10:02:41;10.07;;;5.90;;
12681;SDS011;6405;59.208;18.216;2023-01-10T10:05:22;9.83;;;5.80;;
12681;SDS011;6405;59.208;18.216;2023-01-10T10:07:54;7.07;;;5.00;;
12681;SDS011;6405;59.208;18.216;2023-01-10T10:10:25;9.17;;;5.50;;
12681;SDS011;6405;59.208;18.216;2023-01-10T10:13:03;7.83;;;5.00;;
12681;SDS011;6405;59.208;18.216;2023-01-10T10:16:07;9.27;;;5.17;;
12681;SDS011;6405;59.208;18.216;2023-01-10T10:18:55;9.70;;;5.13;;
12681;SDS011;6405;59.208;18.216;2023-01-10T10:24:18;7.07;;;5.33;;
12681;SDS011;6405;59.208;18.216;2023-01-10T10:30:02;7.20;;;4.80;;
12681;SDS011;6405;59.208;18.216;2023-01-10T10:32:45;7.53;;;4.60;;
12681;SDS011;6405;59.208;18.216;2023-01-10T10:35:38;7.60;;;4.07;;
12681;SDS011;6405;59.208;18.216;2023-01-10T10:38:19;7.00;;;4.17;;
12681;SDS011;6405;59.208;18.216;2023-01-10T10:40:49;9.77;;;5.43;;
12681;SDS011;6405;59.208;18.216;2023-01-10T10:43:20;8.17;;;4.97;;
12681;SDS011;6405;59.208;18.216;2023-01-10T10:45:54;8.53;;;5.17;;
12681;SDS011;6405;59.208;18.216;2023-01-10T10:48:35;9.37;;;5.77;;
12681;SDS011;6405;59.208;18.216;2023-01-10T10:51:09;8.67;;;5.57;;
12681;SDS011;6405;59.208;18.216;2023-01-10T10:53:55;9.00;;;5.30;;
12681;SDS011;6405;59.208;18.216;2023-01-10T10:56:23;9.37;;;5.80;;
12681;SDS011;6405;59.208;18.216;2023-01-10T10:58:51;11.47;;;6.23;;
12681;SDS011;6405;59.208;18.216;2023-01-10T11:01:21;10.27;;;6.40;;
12681;SDS011;6405;59.208;18.216;2023-01-10T11:03:48;9.10;;;5.77;;
12681;SDS011;6405;59.208;18.216;2023-01-10T11:06:20;9.67;;;6.33;;
12681;SDS011;6405;59.208;18.216;2023-01-10T11:08:50;9.37;;;5.90;;
12681;SDS011;6405;59.208;18.216;2023-01-10T11:11:31;11.40;;;7.07;;
12681;SDS011;6405;59.208;18.216;2023-01-10T11:14:02;9.73;;;5.67;;
12681;SDS011;6405;59.208;18.216;2023-01-10T11:16:33;8.00;;;5.97;;
12681;SDS011;6405;59.208;18.216;2023-01-10T11:19:10;11.90;;;6.20;;
12681;SDS011;6405;59.208;18.216;2023-01-10T11:22:05;10.30;;;6.77;;
12681;SDS011;6405;59.208;18.216;2023-01-10T11:24:32;10.63;;;6.40;;
12681;SDS011;6405;59.208;18.216;2023-01-10T11:27:17;10.27;;;6.10;;
12681;SDS011;6405;59.208;18.216;2023-01-10T11:29:54;9.80;;;5.80;;
12681;SDS011;6405;59.208;18.216;2023-01-10T11:32:31;9.83;;;5.87;;
12681;SDS011;6405;59.208;18.216;2023-01-10T11:35:16;8.53;;;5.90;;
12681;SDS011;6405;59.208;18.216;2023-01-10T11:37:44;9.47;;;6.10;;
12681;SDS011;6405;59.208;18.216;2023-01-10T11:40:28;9.13;;;5.90;;
12681;SDS011;6405;59.208;18.216;2023-01-10T11:42:55;10.80;;;6.70;;
12681;SDS011;6405;59.208;18.216;2023-01-10T11:45:27;10.70;;;6.47;;
12681;SDS011;6405;59.208;18.216;2023-01-10T11:48:07;15.17;;;6.23;;
12681;SDS011;6405;59.208;18.216;2023-01-10T11:50:46;10.63;;;6.90;;
12681;SDS011;6405;59.208;18.216;2023-01-10T11:56:12;11.80;;;6.63;;
12681;SDS011;6405;59.208;18.216;2023-01-10T11:58:48;11.13;;;7.00;;
12681;SDS011;6405;59.208;18.216;2023-01-10T12:01:35;11.60;;;6.37;;
12681;SDS011;6405;59.208;18.216;2023-01-10T12:04:17;9.43;;;6.27;;
12681;SDS011;6405;59.208;18.216;2023-01-10T12:06:46;10.77;;;6.73;;
12681;SDS011;6405;59.208;18.216;2023-01-10T12:09:32;10.03;;;5.50;;
12681;SDS011;6405;59.208;18.216;2023-01-10T12:14:46;10.50;;;5.87;;
12681;SDS011;6405;59.208;18.216;2023-01-10T12:19:54;6.90;;;5.20;;
12681;SDS011;6405;59.208;18.216;2023-01-10T12:22:29;9.03;;;5.27;;
12681;SDS011;6405;59.208;18.216;2023-01-10T12:25:02;7.10;;;5.00;;
12681;SDS011;6405;59.208;18.216;2023-01-10T12:27:41;7.90;;;4.40;;
12681;SDS011;6405;59.208;18.216;2023-01-10T12:30:30;12.27;;;5.13;;
12681;SDS011;6405;59.208;18.216;2023-01-10T12:33:02;8.03;;;5.17;;
12681;SDS011;6405;59.208;18.216;2023-01-10T12:35:48;10.07;;;4.93;;
12681;SDS011;6405;59.208;18.216;2023-01-10T12:38:38;5.47;;;2.87;;
12681;SDS011;6405;59.208;18.216;2023-01-10T12:44:40;10.53;;;5.23;;
12681;SDS011;6405;59.208;18.216;2023-01-10T12:47:27;9.27;;;5.20;;
12681;SDS011;6405;59.208;18.216;2023-01-10T12:52:50;10.43;;;5.80;;
12681;SDS011;6405;59.208;18.216;2023-01-10T12:55:24;10.23;;;5.53;;
12681;SDS011;6405;59.208;18.216;2023-01-10T12:57:58;9.33;;;6.00;;
12681;SDS011;6405;59.208;18.216;2023-01-10T13:00:38;11.40;;;5.87;;
12681;SDS011;6405;59.208;18.216;2023-01-10T13:03:12;11.83;;;5.43;;
12681;SDS011;6405;59.208;18.216;2023-01-10T13:05:53;10.00;;;5.70;;
12681;SDS011;6405;59.208;18.216;2023-01-10T13:08:26;7.33;;;5.43;;
12681;SDS011;6405;59.208;18.216;2023-01-10T13:10:57;10.63;;;5.60;;
12681;SDS011;6405;59.208;18.216;2023-01-10T13:13:39;8.57;;;5.07;;
12681;SDS011;6405;59.208;18.216;2023-01-10T13:16:29;10.07;;;5.40;;
12681;SDS011;6405;59.208;18.216;2023-01-10T13:21:38;6.67;;;4.03;;
12681;SDS011;6405;59.208;18.216;2023-01-10T13:24:23;8.00;;;4.60;;
12681;SDS011;6405;59.208;18.216;2023-01-10T13:27:17;8.40;;;4.90;;
12681;SDS011;6405;59.208;18.216;2023-01-10T13:29:43;7.20;;;4.37;;
12681;SDS011;6405;59.208;18.216;2023-01-10T13:34:46;8.57;;;3.87;;
12681;SDS011;6405;59.208;18.216;2023-01-10T13:37:23;7.30;;;4.10;;
12681;SDS011;6405;59.208;18.216;2023-01-10T13:40:00;7.97;;;4.07;;
12681;SDS011;6405;59.208;18.216;2023-01-10T13:42:30;7.00;;;3.73;;
12681;SDS011;6405;59.208;18.216;2023-01-10T13:45:23;6.27;;;3.17;;
12681;SDS011;6405;59.208;18.216;2023-01-10T14:01:21;6.13;;;2.93;;
12681;SDS011;6405;59.208;18.216;2023-01-10T14:04:16;6.10;;;2.93;;
12681;SDS011;6405;59.208;18.216;2023-01-10T14:06:57;8.73;;;3.77;;
12681;SDS011;6405;59.208;18.216;2023-01-10T14:09:35;4.23;;;2.53;;
12681;SDS011;6405;59.208;18.216;2023-01-10T14:12:25;5.67;;;3.10;;
12681;SDS011;6405;59.208;18.216;2023-01-10T14:15:04;5.53;;;3.40;;
12681;SDS011;6405;59.208;18.216;2023-01-10T14:20:30;3.83;;;2.47;;
12681;SDS011;6405;59.208;18.216;2023-01-10T14:23:07;5.23;;;3.10;;
12681;SDS011;6405;59.208;18.216;2023-01-10T14:25:42;4.90;;;3.10;;
12681;SDS011;6405;59.208;18.216;2023-01-10T14:28:30;4.20;;;2.93;;
12681;SDS011;6405;59.208;18.216;2023-01-10T14:31:06;2.47;;;1.73;;
12681;SDS011;6405;59.208;18.216;2023-01-10T14:33:52;10.17;;;2.70;;
12681;SDS011;6405;59.208;18.216;2023-01-10T14:36:23;6.00;;;3.20;;
12681;SDS011;6405;59.208;18.216;2023-01-10T14:38:57;4.57;;;3.00;;
12681;SDS011;6405;59.208;18.216;2023-01-10T14:41:36;6.47;;;3.30;;
12681;SDS011;6405;59.208;18.216;2023-01-10T14:44:13;5.57;;;2.97;;
12681;SDS011;6405;59.208;18.216;2023-01-10T14:46:47;5.20;;;3.30;;
12681;SDS011;6405;59.208;18.216;2023-01-10T14:49:20;6.27;;;3.23;;
12681;SDS011;6405;59.208;18.216;2023-01-10T14:51:50;4.93;;;3.27;;
12681;SDS011;6405;59.208;18.216;2023-01-10T14:54:19;4.47;;;3.13;;
12681;SDS011;6405;59.208;18.216;2023-01-10T14:56:50;6.23;;;3.13;;
12681;SDS011;6405;59.208;18.216;2023-01-10T15:01:59;5.00;;;3.10;;
12681;SDS011;6405;59.208;18.216;2023-01-10T15:04:30;9.23;;;3.43;;
12681;SDS011;6405;59.208;18.216;2023-01-10T15:07:10;3.70;;;2.80;;
12681;SDS011;6405;59.208;18.216;2023-01-10T15:09:46;7.67;;;3.53;;
12681;SDS011;6405;59.208;18.216;2023-01-10T15:12:15;5.27;;;3.33;;
12681;SDS011;6405;59.208;18.216;2023-01-10T15:14:43;7.80;;;3.40;;
12681;SDS011;6405;59.208;18.216;2023-01-10T15:17:12;6.20;;;3.60;;
12681;SDS011;6405;59.208;18.216;2023-01-10T15:19:46;7.07;;;3.07;;
12681;SDS011;6405;59.208;18.216;2023-01-10T15:22:24;5.30;;;3.20;;
12681;SDS011;6405;59.208;18.216;2023-01-10T15:25:02;3.50;;;2.70;;
12681;SDS011;6405;59.208;18.216;2023-01-10T15:27:50;5.30;;;2.80;;
12681;SDS011;6405;59.208;18.216;2023-01-10T15:30:21;3.93;;;2.93;;
12681;SDS011;6405;59.208;18.216;2023-01-10T15:32:52;2.60;;;2.27;;
12681;SDS011;6405;59.208;18.216;2023-01-10T15:35:24;7.50;;;2.80;;
12681;SDS011;6405;59.208;18.216;2023-01-10T15:37:56;3.10;;;2.33;;
12681;SDS011;6405;59.208;18.216;2023-01-10T15:40:35;4.67;;;2.27;;
12681;SDS011;6405;59.208;18.216;2023-01-10T15:45:44;4.03;;;2.37;;
12681;SDS011;6405;59.208;18.216;2023-01-10T15:50:58;3.10;;;2.17;;
12681;SDS011;6405;59.208;18.216;2023-01-10T15:56:41;5.77;;;2.40;;
12681;SDS011;6405;59.208;18.216;2023-01-10T15:59:19;5.33;;;3.00;;
12681;SDS011;6405;59.208;18.216;2023-01-10T16:01:54;3.57;;;2.67;;
12681;SDS011;6405;59.208;18.216;2023-01-10T16:04:36;4.43;;;2.87;;
12681;SDS011;6405;59.208;18.216;2023-01-10T16:07:21;8.93;;;3.13;;
12681;SDS011;6405;59.208;18.216;2023-01-10T16:15:22;7.53;;;2.73;;
12681;SDS011;6405;59.208;18.216;2023-01-10T16:17:52;5.43;;;2.50;;
12681;SDS011;6405;59.208;18.216;2023-01-10T16:20:21;4.57;;;2.50;;
12681;SDS011;6405;59.208;18.216;2023-01-10T16:22:50;6.97;;;2.97;;
12681;SDS011;6405;59.208;18.216;2023-01-10T16:25:27;3.67;;;2.40;;
12681;SDS011;6405;59.208;18.216;2023-01-10T16:28:00;6.63;;;2.90;;
12681;SDS011;6405;59.208;18.216;2023-01-10T16:30:32;7.40;;;3.03;;
12681;SDS011;6405;59.208;18.216;2023-01-10T16:32:59;7.13;;;2.93;;
12681;SDS011;6405;59.208;18.216;2023-01-10T16:35:34;6.53;;;3.40;;
12681;SDS011;6405;59.208;18.216;2023-01-10T16:37:59;5.33;;;3.63;;
12681;SDS011;6405;59.208;18.216;2023-01-10T16:40:37;7.57;;;3.97;;
12681;SDS011;6405;59.208;18.216;2023-01-10T16:43:09;6.47;;;3.07;;
12681;SDS011;6405;59.208;18.216;2023-01-10T16:45:44;5.80;;;3.60;;
12681;SDS011;6405;59.208;18.216;2023-01-10T16:48:17;7.73;;;4.30;;
12681;SDS011;6405;59.208;18.216;2023-01-10T16:50:45;7.53;;;3.60;;
12681;SDS011;6405;59.208;18.216;2023-01-10T16:53:12;10.57;;;4.33;;
12681;SDS011;6405;59.208;18.216;2023-01-10T16:55:43;10.60;;;5.63;;